Time;durP1;ratioP1;P1;durP2;ratioP2;P2;SDS_P1;SDS_P2;PMS_P1;PMS_P2;Temp;Humidity;BMP_temperature;BMP_pressure;BME280_temperature;BME280_humidity;BME280_pressure;Samples;Min_cycle;Max_cycle;Signal;HPM_P1;HPM_P2
2023/10/25 00:01:09;;;;;;;0.00;0.00;;;;;;;;;;5005248;28;20183;-73
2023/10/25 00:03:36;;;;;;;0.00;0.00;;;;;;;;;;5010259;28;20061;-73
2023/10/25 00:06:04;;;;;;;0.10;0.10;;;;;;;;;;5013935;28;20049;-72
2023/10/25 00:08:31;;;;;;;0.03;0.03;;;;;;;;;;5013077;28;20461;-73
2023/10/25 00:11:03;;;;;;;0.05;0.05;;;;;;;;;;5012603;28;20049;-73
2023/10/25 00:13:30;;;;;;;0.00;0.00;;;;;;;;;;5011094;28;20316;-73
2023/10/25 00:15:58;;;;;;;0.00;0.00;;;;;;;;;;5009290;28;20049;-73
2023/10/25 00:18:26;;;;;;;0.08;0.08;;;;;;;;;;5010161;28;20080;-73
2023/10/25 00:20:54;;;;;;;0.10;0.10;;;;;;;;;;5010835;28;20045;-74
2023/10/25 00:23:22;;;;;;;0.00;0.00;;;;;;;;;;5007906;28;20057;-74
2023/10/25 00:25:51;;;;;;;0.05;0.05;;;;;;;;;;5016502;28;20049;-74
2023/10/25 00:28:19;;;;;;;0.10;0.10;;;;;;;;;;5032099;23;20575;-77
2023/10/25 00:30:46;;;;;;;0.22;0.22;;;;;;;;;;5015911;28;20057;-77
2023/10/25 00:33:14;;;;;;;0.00;0.00;;;;;;;;;;5015864;28;20042;-78
2023/10/25 00:35:42;;;;;;;0.00;0.00;;;;;;;;;;5013368;28;20070;-80
2023/10/25 00:38:09;;;;;;;0.10;0.10;;;;;;;;;;5012038;28;20425;-78
2023/10/25 00:40:37;;;;;;;0.00;0.00;;;;;;;;;;5013274;28;20053;-78
2023/10/25 00:43:14;;;;;;;0.93;0.93;;;;;;;;;;5011690;28;20634;-79
2023/10/25 00:45:57;;;;;;;0.10;0.10;;;;;;;;;;5008578;28;20060;-78
2023/10/25 00:48:25;;;;;;;0.40;0.40;;;;;;;;;;5009837;28;20108;-84
2023/10/25 00:50:52;;;;;;;0.10;0.10;;;;;;;;;;5006472;28;20037;-77
2023/10/25 00:53:20;;;;;;;0.10;0.10;;;;;;;;;;5016700;28;21243;-79
2023/10/25 00:55:48;;;;;;;0.00;0.00;;;;;;;;;;5012609;28;20046;-78
2023/10/25 00:58:16;;;;;;;0.10;0.10;;;;;;;;;;5015382;28;20053;-78
2023/10/25 01:00:43;;;;;;;0.00;0.00;;;;;;;;;;5013858;28;20049;-77
2023/10/25 01:03:11;;;;;;;0.00;0.00;;;;;;;;;;5016559;28;20137;-77
2023/10/25 01:05:41;;;;;;;0.10;0.10;;;;;;;;;;5016768;28;20057;-77
2023/10/25 01:08:09;;;;;;;0.10;0.10;;;;;;;;;;5012917;28;20098;-77
2023/10/25 01:10:37;;;;;;;0.00;0.00;;;;;;;;;;5011387;28;20048;-77
2023/10/25 01:13:04;;;;;;;0.00;0.00;;;;;;;;;;5011562;28;20056;-78
2023/10/25 01:15:32;;;;;;;0.00;0.00;;;;;;;;;;5008513;28;20048;-77
2023/10/25 01:17:59;;;;;;;0.00;0.00;;;;;;;;;;5011582;28;20097;-77
2023/10/25 01:20:27;;;;;;;0.00;0.00;;;;;;;;;;5011894;28;20555;-78
2023/10/25 01:22:54;;;;;;;0.10;0.10;;;;;;;;;;5018785;28;20104;-78
2023/10/25 01:25:22;;;;;;;0.10;0.10;;;;;;;;;;5018190;28;20053;-78
2023/10/25 01:27:50;;;;;;;0.00;0.00;;;;;;;;;;5019489;28;20058;-78
2023/10/25 01:30:18;;;;;;;0.10;0.10;;;;;;;;;;5005604;28;20054;-78
2023/10/25 01:32:46;;;;;;;0.10;0.10;;;;;;;;;;5020010;28;20052;-78
2023/10/25 01:35:14;;;;;;;0.10;0.10;;;;;;;;;;5020384;28;20073;-78
2023/10/25 01:37:42;;;;;;;0.00;0.00;;;;;;;;;;5010815;28;20077;-78
2023/10/25 01:40:11;;;;;;;0.10;0.10;;;;;;;;;;5004842;28;20117;-79
2023/10/25 01:42:38;;;;;;;0.10;0.10;;;;;;;;;;5007421;28;20047;-78
2023/10/25 01:45:06;;;;;;;0.10;0.10;;;;;;;;;;5006396;28;20058;-78
2023/10/25 01:47:35;;;;;;;0.00;0.00;;;;;;;;;;5017698;28;20095;-78
2023/10/25 01:50:03;;;;;;;0.22;0.22;;;;;;;;;;5012691;28;20077;-78
2023/10/25 01:52:30;;;;;;;0.03;0.03;;;;;;;;;;5022492;28;20046;-78
2023/10/25 01:54:58;;;;;;;0.10;0.10;;;;;;;;;;5022289;28;20034;-78
2023/10/25 01:57:25;;;;;;;0.10;0.10;;;;;;;;;;5006896;28;20049;-79
2023/10/25 01:59:53;;;;;;;0.05;0.05;;;;;;;;;;5011237;28;20049;-79
2023/10/25 02:02:20;;;;;;;0.10;0.10;;;;;;;;;;5007038;28;20050;-79
2023/10/25 02:04:48;;;;;;;0.00;0.00;;;;;;;;;;5000182;28;20096;-76
2023/10/25 02:07:15;;;;;;;0.00;0.00;;;;;;;;;;5018379;28;20136;-80
2023/10/25 02:09:43;;;;;;;0.00;0.00;;;;;;;;;;5007505;28;20069;-78
2023/10/25 02:12:11;;;;;;;0.10;0.10;;;;;;;;;;5017970;28;20045;-78
2023/10/25 02:14:38;;;;;;;0.10;0.10;;;;;;;;;;5019312;28;20045;-77
2023/10/25 02:17:06;;;;;;;0.10;0.10;;;;;;;;;;5021369;28;20312;-79
2023/10/25 02:19:33;;;;;;;0.00;0.00;;;;;;;;;;5021827;28;20088;-79
2023/10/25 02:22:00;;;;;;;0.08;0.08;;;;;;;;;;5021223;28;20499;-78
2023/10/25 02:24:28;;;;;;;0.00;0.00;;;;;;;;;;5015930;28;20045;-78
2023/10/25 02:26:56;;;;;;;0.05;0.05;;;;;;;;;;5016122;28;20052;-78
2023/10/25 02:29:24;;;;;;;0.10;0.10;;;;;;;;;;5019507;28;20045;-77
2023/10/25 02:31:51;;;;;;;0.00;0.00;;;;;;;;;;5014097;28;20041;-78
2023/10/25 02:34:19;;;;;;;0.10;0.10;;;;;;;;;;5010238;28;20045;-79
2023/10/25 02:36:46;;;;;;;0.10;0.10;;;;;;;;;;5015655;28;20132;-79
2023/10/25 02:39:14;;;;;;;0.10;0.10;;;;;;;;;;5006066;28;20393;-78
2023/10/25 02:41:41;;;;;;;0.10;0.10;;;;;;;;;;5014820;28;20375;-78
2023/10/25 02:44:09;;;;;;;0.10;0.10;;;;;;;;;;5015465;28;20434;-78
2023/10/25 02:46:36;;;;;;;0.13;0.13;;;;;;;;;;5020921;28;20053;-80
2023/10/25 02:49:04;;;;;;;0.00;0.00;;;;;;;;;;5004753;28;20053;-78
2023/10/25 02:51:32;;;;;;;0.10;0.10;;;;;;;;;;5017087;28;20037;-77
2023/10/25 02:53:59;;;;;;;0.43;0.43;;;;;;;;;;5018274;28;20150;-78
2023/10/25 02:56:26;;;;;;;0.00;0.00;;;;;;;;;;5021912;28;20080;-78
2023/10/25 02:58:54;;;;;;;0.10;0.10;;;;;;;;;;5013405;28;20484;-76
2023/10/25 03:01:22;;;;;;;0.10;0.10;;;;;;;;;;5011657;28;20045;-78
2023/10/25 03:03:50;;;;;;;0.00;0.00;;;;;;;;;;5015500;28;20041;-77
2023/10/25 03:06:19;;;;;;;0.10;0.10;;;;;;;;;;5011083;28;20132;-77
2023/10/25 03:08:46;;;;;;;0.10;0.10;;;;;;;;;;5012165;28;20073;-76
2023/10/25 03:11:14;;;;;;;0.03;0.03;;;;;;;;;;5010429;28;20054;-78
2023/10/25 03:13:41;;;;;;;0.00;0.00;;;;;;;;;;5008497;28;20276;-78
2023/10/25 03:16:09;;;;;;;0.10;0.10;;;;;;;;;;5016734;28;20052;-77
2023/10/25 03:18:36;;;;;;;0.10;0.10;;;;;;;;;;5013757;28;20287;-77
2023/10/25 03:21:04;;;;;;;0.20;0.20;;;;;;;;;;5008965;28;20054;-77
2023/10/25 03:23:32;;;;;;;0.10;0.10;;;;;;;;;;5017386;28;20042;-78
2023/10/25 03:26:07;;;;;;;0.13;0.13;;;;;;;;;;5015177;28;20103;-78
2023/10/25 03:28:34;;;;;;;0.00;0.00;;;;;;;;;;5006125;28;20083;-78
2023/10/25 03:31:07;;;;;;;0.50;0.50;;;;;;;;;;5020895;28;20107;-80
2023/10/25 03:33:35;;;;;;;0.10;0.10;;;;;;;;;;5001614;28;20522;-78
2023/10/25 03:36:02;;;;;;;0.10;0.10;;;;;;;;;;5011827;28;20465;-79
2023/10/25 03:38:30;;;;;;;0.10;0.10;;;;;;;;;;5006794;28;20091;-78
2023/10/25 03:41:05;;;;;;;0.10;0.10;;;;;;;;;;5006871;28;20043;-77
2023/10/25 03:43:33;;;;;;;0.40;0.40;;;;;;;;;;5004483;28;20107;-76
2023/10/25 03:46:07;;;;;;;1.45;0.70;;;;;;;;;;5011939;28;20050;-76
2023/10/25 03:48:36;;;;;;;0.00;0.00;;;;;;;;;;5020602;28;20049;-77
2023/10/25 03:51:04;;;;;;;0.10;0.10;;;;;;;;;;5017631;28;20161;-78
2023/10/25 03:53:38;;;;;;;0.15;0.15;;;;;;;;;;5013666;28;20562;-77
2023/10/25 03:56:06;;;;;;;0.10;0.10;;;;;;;;;;5006582;28;20049;-79
2023/10/25 03:58:34;;;;;;;0.60;0.60;;;;;;;;;;5005963;28;20376;-77
2023/10/25 04:01:02;;;;;;;0.10;0.10;;;;;;;;;;5003873;28;20069;-78
2023/10/25 04:03:30;;;;;;;1.70;1.67;;;;;;;;;;5011554;28;20054;-76
2023/10/25 04:05:57;;;;;;;4.20;0.80;;;;;;;;;;5011097;28;20049;-76
2023/10/25 04:08:24;;;;;;;0.08;0.08;;;;;;;;;;5008630;28;20499;-77
2023/10/25 04:10:52;;;;;;;0.43;0.43;;;;;;;;;;5016215;28;20052;-77
2023/10/25 04:13:21;;;;;;;0.10;0.10;;;;;;;;;;5019756;28;20105;-79
2023/10/25 04:16:07;;;;;;;0.10;0.10;;;;;;;;;;5016013;28;20128;-78
2023/10/25 04:18:36;;;;;;;0.10;0.10;;;;;;;;;;5008618;28;20291;-78
2023/10/25 04:21:09;;;;;;;0.20;0.20;;;;;;;;;;5006716;28;20073;-77
2023/10/25 04:23:36;;;;;;;2.05;1.00;;;;;;;;;;5005691;28;20108;-78
2023/10/25 04:26:04;;;;;;;0.20;0.20;;;;;;;;;;5000701;28;20626;-77
2023/10/25 04:28:32;;;;;;;0.88;0.88;;;;;;;;;;5006175;28;20084;-80
2023/10/25 04:30:59;;;;;;;0.73;0.73;;;;;;;;;;5005910;28;20046;-80
2023/10/25 04:33:27;;;;;;;0.57;0.57;;;;;;;;;;5005489;28;20526;-77
2023/10/25 04:35:55;;;;;;;0.20;0.20;;;;;;;;;;5024896;28;20101;-76
2023/10/25 04:38:23;;;;;;;0.20;0.20;;;;;;;;;;5018581;28;20061;-77
2023/10/25 04:40:51;;;;;;;0.00;0.00;;;;;;;;;;5009904;28;20092;-77
2023/10/25 04:43:19;;;;;;;0.38;0.38;;;;;;;;;;5015967;28;20077;-78
2023/10/25 04:45:46;;;;;;;0.10;0.10;;;;;;;;;;5013651;28;20052;-76
2023/10/25 04:48:15;;;;;;;0.40;0.40;;;;;;;;;;5009949;28;20089;-79
2023/10/25 04:50:42;;;;;;;0.10;0.10;;;;;;;;;;5004611;28;20070;-78
2023/10/25 04:53:10;;;;;;;0.20;0.20;;;;;;;;;;5009797;28;20084;-77
2023/10/25 04:55:37;;;;;;;0.73;0.73;;;;;;;;;;5012127;28;20075;-79
2023/10/25 04:58:05;;;;;;;0.15;0.15;;;;;;;;;;5010319;28;20313;-78
2023/10/25 05:00:33;;;;;;;0.00;0.00;;;;;;;;;;5004887;28;20045;-81
2023/10/25 05:03:01;;;;;;;0.10;0.10;;;;;;;;;;5006917;28;20050;-79
2023/10/25 05:05:29;;;;;;;0.10;0.10;;;;;;;;;;5010639;28;20038;-79
2023/10/25 05:07:57;;;;;;;0.00;0.00;;;;;;;;;;5005756;28;20062;-78
2023/10/25 05:10:24;;;;;;;0.10;0.10;;;;;;;;;;5006808;28;20070;-79
2023/10/25 05:12:52;;;;;;;0.10;0.10;;;;;;;;;;5007827;28;20046;-77
2023/10/25 05:15:20;;;;;;;0.10;0.10;;;;;;;;;;5003197;28;20077;-79
2023/10/25 05:17:48;;;;;;;0.20;0.20;;;;;;;;;;5007325;28;20046;-78
2023/10/25 05:20:15;;;;;;;0.10;0.10;;;;;;;;;;5009334;28;20038;-78
2023/10/25 05:22:47;;;;;;;1.08;0.65;;;;;;;;;;5009279;28;20046;-77
2023/10/25 05:25:15;;;;;;;1.45;0.40;;;;;;;;;;5007313;28;20041;-77
2023/10/25 05:27:43;;;;;;;0.20;0.20;;;;;;;;;;5014374;28;20130;-78
2023/10/25 05:30:12;;;;;;;0.22;0.22;;;;;;;;;;5028965;28;20049;-78
2023/10/25 05:32:43;;;;;;;0.45;0.45;;;;;;;;;;5007528;28;20500;-77
2023/10/25 05:35:11;;;;;;;1.10;1.10;;;;;;;;;;5002744;28;20569;-77
2023/10/25 05:37:41;;;;;;;0.32;0.32;;;;;;;;;;5011123;28;20168;-78
2023/10/25 05:40:08;;;;;;;0.22;0.22;;;;;;;;;;5003591;28;20061;-77
2023/10/25 05:42:57;;;;;;;0.40;0.40;;;;;;;;;;5008496;28;20049;-80
2023/10/25 05:45:25;;;;;;;0.10;0.10;;;;;;;;;;5001963;28;20536;-79
2023/10/25 05:47:54;;;;;;;0.30;0.30;;;;;;;;;;5014131;28;20045;-77
2023/10/25 05:50:22;;;;;;;0.47;0.47;;;;;;;;;;5009990;28;20479;-78
2023/10/25 05:52:50;;;;;;;0.30;0.30;;;;;;;;;;5009740;28;20555;-78
2023/10/25 05:55:17;;;;;;;0.00;0.00;;;;;;;;;;4998056;28;20054;-78
2023/10/25 05:57:45;;;;;;;0.10;0.10;;;;;;;;;;5021981;28;20065;-81
2023/10/25 06:00:14;;;;;;;0.15;0.15;;;;;;;;;;5002924;28;20467;-79
2023/10/25 06:02:43;;;;;;;0.10;0.10;;;;;;;;;;5002611;28;20508;-80
2023/10/25 06:05:12;;;;;;;0.10;0.10;;;;;;;;;;4998002;28;20112;-78
2023/10/25 06:07:41;;;;;;;0.08;0.08;;;;;;;;;;5004012;28;20042;-78
2023/10/25 06:10:09;;;;;;;0.10;0.10;;;;;;;;;;5013271;28;20107;-78
2023/10/25 06:12:37;;;;;;;0.10;0.10;;;;;;;;;;5008400;28;20038;-77
2023/10/25 06:15:05;;;;;;;0.10;0.10;;;;;;;;;;5008255;28;20038;-76
2023/10/25 06:17:33;;;;;;;0.00;0.00;;;;;;;;;;5008073;28;20496;-77
2023/10/25 06:20:01;;;;;;;0.10;0.10;;;;;;;;;;5010906;28;20079;-77
2023/10/25 06:22:30;;;;;;;0.40;0.40;;;;;;;;;;5012109;28;20054;-77
2023/10/25 06:24:57;;;;;;;0.40;0.40;;;;;;;;;;5010232;28;20468;-77
2023/10/25 06:27:26;;;;;;;0.10;0.10;;;;;;;;;;5005562;28;20050;-78
2023/10/25 06:29:53;;;;;;;0.13;0.13;;;;;;;;;;5041490;23;20137;-83
2023/10/25 06:32:20;;;;;;;0.00;0.00;;;;;;;;;;5004652;28;20061;-83
2023/10/25 06:34:48;;;;;;;1.08;1.08;;;;;;;;;;5004179;28;20108;-84
2023/10/25 06:37:15;;;;;;;0.50;0.50;;;;;;;;;;5005113;28;20062;-84
2023/10/25 06:39:44;;;;;;;0.10;0.10;;;;;;;;;;5004429;28;20105;-83
2023/10/25 06:42:12;;;;;;;0.20;0.20;;;;;;;;;;5004216;28;20049;-84
2023/10/25 06:44:41;;;;;;;0.13;0.13;;;;;;;;;;4996653;28;20488;-85
2023/10/25 06:47:10;;;;;;;0.08;0.08;;;;;;;;;;5001395;28;20053;-84
2023/10/25 06:49:37;;;;;;;0.10;0.10;;;;;;;;;;5003552;28;20046;-84
2023/10/25 06:52:05;;;;;;;0.15;0.15;;;;;;;;;;4999518;28;20136;-84
2023/10/25 06:54:33;;;;;;;0.10;0.10;;;;;;;;;;5004445;28;20411;-84
2023/10/25 06:57:01;;;;;;;0.40;0.40;;;;;;;;;;5007424;28;20388;-84
2023/10/25 06:59:28;;;;;;;0.10;0.10;;;;;;;;;;5005147;28;20488;-84
2023/10/25 07:02:10;;;;;;;0.10;0.10;;;;;;;;;;5002981;28;20049;-83
2023/10/25 07:04:38;;;;;;;;;;;;;;;;;;5000348;28;20135;-83
2023/10/25 07:07:11;;;;;;;0.05;0.05;;;;;;;;;;5004201;28;20395;-84
2023/10/25 07:09:40;;;;;;;0.10;0.10;;;;;;;;;;4998388;28;20050;-83
2023/10/25 07:12:07;;;;;;;1.35;1.25;;;;;;;;;;5000599;28;20123;-83
2023/10/25 07:14:35;;;;;;;0.35;0.35;;;;;;;;;;5000432;28;20061;-84
2023/10/25 07:17:03;;;;;;;2.38;1.75;;;;;;;;;;4997955;28;20069;-83
2023/10/25 07:19:30;;;;;;;0.47;0.47;;;;;;;;;;5007769;28;20066;-84
2023/10/25 07:21:58;;;;;;;0.43;0.30;;;;;;;;;;5004098;28;20042;-84
2023/10/25 07:24:25;;;;;;;0.52;0.47;;;;;;;;;;5002922;28;20068;-83
2023/10/25 07:26:54;;;;;;;0.20;0.20;;;;;;;;;;5003094;28;20154;-84
2023/10/25 07:29:21;;;;;;;1.67;0.43;;;;;;;;;;5003526;28;20435;-84
2023/10/25 07:31:48;;;;;;;1.33;1.23;;;;;;;;;;4999383;28;20491;-84
2023/10/25 07:34:16;;;;;;;0.75;0.75;;;;;;;;;;4997104;28;20447;-84
2023/10/25 07:36:44;;;;;;;0.45;0.43;;;;;;;;;;5005165;28;20042;-84
2023/10/25 07:39:15;;;;;;;0.10;0.10;;;;;;;;;;5004089;28;20061;-84
2023/10/25 07:41:42;;;;;;;1.02;1.02;;;;;;;;;;5000165;28;20515;-83
2023/10/25 07:44:09;;;;;;;0.13;0.13;;;;;;;;;;4999184;28;20080;-83
2023/10/25 07:46:38;;;;;;;0.10;0.10;;;;;;;;;;5017572;28;20570;-83
2023/10/25 07:49:05;;;;;;;0.10;0.10;;;;;;;;;;4998869;28;20046;-83
2023/10/25 07:51:33;;;;;;;0.35;0.35;;;;;;;;;;5003309;28;20054;-83
2023/10/25 07:54:00;;;;;;;0.25;0.25;;;;;;;;;;4996458;28;20518;-83
2023/10/25 07:56:28;;;;;;;0.22;0.22;;;;;;;;;;5003687;28;20050;-83
2023/10/25 07:58:59;;;;;;;0.10;0.10;;;;;;;;;;5002047;28;20445;-83
2023/10/25 08:01:26;;;;;;;0.15;0.15;;;;;;;;;;4998062;28;20045;-84
2023/10/25 08:03:54;;;;;;;0.32;0.32;;;;;;;;;;5001554;28;20040;-82
2023/10/25 08:06:22;;;;;;;0.10;0.10;;;;;;;;;;4999082;28;20046;-86
2023/10/25 08:08:50;;;;;;;1.75;0.65;;;;;;;;;;4997567;28;20072;-84
2023/10/25 08:11:17;;;;;;;0.57;0.57;;;;;;;;;;4999584;28;20056;-84
2023/10/25 08:13:45;;;;;;;0.38;0.22;;;;;;;;;;5005532;28;20500;-84
2023/10/25 08:16:12;;;;;;;0.10;0.10;;;;;;;;;;5000649;28;20566;-84
2023/10/25 08:18:39;;;;;;;0.10;0.10;;;;;;;;;;4997377;28;20053;-84
2023/10/25 08:21:12;;;;;;;0.40;0.40;;;;;;;;;;5001570;28;20054;-84
2023/10/25 08:23:40;;;;;;;0.20;0.17;;;;;;;;;;5003498;28;20046;-84
2023/10/25 08:26:07;;;;;;;0.10;0.10;;;;;;;;;;5008034;28;20046;-84
2023/10/25 08:28:36;;;;;;;0.40;0.40;;;;;;;;;;5003519;28;20411;-85
2023/10/25 08:31:10;;;;;;;0.75;0.68;;;;;;;;;;5007460;28;20120;-84
2023/10/25 08:33:38;;;;;;;0.10;0.10;;;;;;;;;;5003567;28;20077;-85
2023/10/25 08:36:06;;;;;;;0.32;0.32;;;;;;;;;;5006237;28;20054;-85
2023/10/25 08:38:34;;;;;;;0.30;0.30;;;;;;;;;;5006130;28;20066;-85
2023/10/25 08:41:06;;;;;;;0.20;0.20;;;;;;;;;;5008362;28;20064;-85
2023/10/25 08:43:34;;;;;;;0.03;0.03;;;;;;;;;;5002465;28;20554;-85
2023/10/25 08:46:05;;;;;;;0.20;0.20;;;;;;;;;;5006119;28;20500;-84
2023/10/25 08:48:33;;;;;;;0.10;0.10;;;;;;;;;;5006875;28;20049;-84
2023/10/25 08:51:01;;;;;;;0.30;0.30;;;;;;;;;;5008374;28;20388;-85
2023/10/25 08:53:29;;;;;;;0.52;0.52;;;;;;;;;;5006913;28;20152;-83
2023/10/25 08:55:57;;;;;;;0.30;0.30;;;;;;;;;;5008589;28;20034;-85
2023/10/25 08:58:25;;;;;;;0.00;0.00;;;;;;;;;;5005478;28;20053;-84
2023/10/25 09:00:55;;;;;;;0.10;0.10;;;;;;;;;;5007768;28;20144;-84
2023/10/25 09:03:32;;;;;;;3.83;2.92;;;;;;;;;;5006254;28;20049;-84
2023/10/25 09:05:59;;;;;;;0.30;0.30;;;;;;;;;;5003803;28;20137;-85
2023/10/25 09:08:27;;;;;;;0.22;0.22;;;;;;;;;;5005739;28;20108;-84
2023/10/25 09:11:01;;;;;;;0.10;0.10;;;;;;;;;;5005528;28;20045;-84
2023/10/25 09:13:32;;;;;;;0.10;0.10;;;;;;;;;;5003492;28;20050;-84
2023/10/25 09:16:04;;;;;;;0.10;0.10;;;;;;;;;;4998185;28;20129;-85
2023/10/25 09:18:33;;;;;;;0.10;0.10;;;;;;;;;;5015282;28;20042;-84
2023/10/25 09:21:01;;;;;;;0.10;0.10;;;;;;;;;;5011286;28;20046;-84
2023/10/25 09:23:39;;;;;;;0.13;0.13;;;;;;;;;;5006304;28;20074;-84
2023/10/25 09:26:16;;;;;;;0.35;0.35;;;;;;;;;;5009100;28;20574;-84
2023/10/25 09:28:48;;;;;;;0.20;0.20;;;;;;;;;;5009590;28;20126;-85
2023/10/25 09:31:27;;;;;;;0.20;0.20;;;;;;;;;;5008335;28;20074;-84
2023/10/25 09:34:00;;;;;;;0.00;0.00;;;;;;;;;;5011679;28;20351;-85
2023/10/25 09:36:28;;;;;;;0.30;0.20;;;;;;;;;;5004312;28;20053;-85
2023/10/25 09:38:56;;;;;;;0.20;0.20;;;;;;;;;;5008025;28;20120;-83
2023/10/25 09:41:26;;;;;;;0.82;0.28;;;;;;;;;;5004982;28;20045;-85
2023/10/25 09:43:58;;;;;;;0.30;0.30;;;;;;;;;;5006917;28;20092;-84
2023/10/25 09:46:29;;;;;;;0.13;0.13;;;;;;;;;;5005039;28;20049;-84
2023/10/25 09:49:04;;;;;;;0.20;0.20;;;;;;;;;;5008217;28;20504;-84
2023/10/25 09:51:49;;;;;;;0.10;0.10;;;;;;;;;;5013454;28;20305;-84
2023/10/25 09:54:23;;;;;;;0.22;0.22;;;;;;;;;;5008187;28;20437;-84
2023/10/25 09:56:51;;;;;;;0.63;0.22;;;;;;;;;;5006526;28;20099;-84
2023/10/25 09:59:20;;;;;;;0.00;0.00;;;;;;;;;;5009032;28;20100;-83
2023/10/25 10:01:48;;;;;;;0.10;0.10;;;;;;;;;;5007699;28;20046;-84
2023/10/25 10:04:23;;;;;;;0.10;0.10;;;;;;;;;;5005915;28;20427;-84
2023/10/25 10:07:06;;;;;;;0.30;0.30;;;;;;;;;;5002157;28;20038;-84
2023/10/25 10:09:54;;;;;;;0.25;0.25;;;;;;;;;;5007551;28;20061;-85
2023/10/25 10:12:22;;;;;;;0.15;0.15;;;;;;;;;;5006943;28;20104;-84
2023/10/25 10:14:49;;;;;;;0.10;0.10;;;;;;;;;;5007072;28;20050;-84
2023/10/25 10:17:17;;;;;;;0.03;0.03;;;;;;;;;;5004791;28;20054;-84
2023/10/25 10:19:46;;;;;;;0.00;0.00;;;;;;;;;;5009536;28;20053;-86
2023/10/25 10:22:14;;;;;;;0.10;0.10;;;;;;;;;;5007400;28;20120;-84
2023/10/25 10:24:43;;;;;;;0.00;0.00;;;;;;;;;;5010861;28;20075;-83
2023/10/25 10:27:15;;;;;;;0.13;0.13;;;;;;;;;;5006215;28;20184;-84
2023/10/25 10:29:43;;;;;;;0.00;0.00;;;;;;;;;;5006525;28;20053;-84
2023/10/25 10:32:11;;;;;;;0.22;0.22;;;;;;;;;;5005232;28;20052;-84
2023/10/25 10:34:48;;;;;;;0.45;0.45;;;;;;;;;;5007919;28;20048;-84
2023/10/25 10:37:24;;;;;;;0.47;0.47;;;;;;;;;;5004792;28;20132;-84
2023/10/25 10:39:58;;;;;;;1.95;0.68;;;;;;;;;;5019033;28;20042;-84
2023/10/25 10:42:31;;;;;;;0.30;0.30;;;;;;;;;;5003923;28;20046;-85
2023/10/25 10:44:59;;;;;;;1.25;0.22;;;;;;;;;;5006337;28;20054;-84
2023/10/25 10:47:35;;;;;;;0.38;0.38;;;;;;;;;;4999293;28;20050;-84
2023/10/25 10:50:09;;;;;;;0.47;0.47;;;;;;;;;;5015221;28;20504;-84
2023/10/25 10:52:36;;;;;;;0.38;0.38;;;;;;;;;;5001038;28;20046;-85
2023/10/25 10:55:05;;;;;;;0.10;0.10;;;;;;;;;;5000439;28;20407;-85
2023/10/25 10:57:32;;;;;;;0.32;0.32;;;;;;;;;;4999831;28;20051;-85
2023/10/25 11:00:01;;;;;;;0.25;0.25;;;;;;;;;;5008387;28;20053;-85
2023/10/25 11:02:29;;;;;;;1.00;0.95;;;;;;;;;;4986041;28;20049;-84
2023/10/25 11:04:56;;;;;;;0.10;0.10;;;;;;;;;;5004075;28;20096;-85
2023/10/25 11:07:24;;;;;;;0.30;0.30;;;;;;;;;;5008651;28;20107;-85
2023/10/25 11:09:51;;;;;;;0.60;0.60;;;;;;;;;;5003585;28;20517;-86
2023/10/25 11:12:18;;;;;;;0.40;0.40;;;;;;;;;;4997036;28;20073;-85
2023/10/25 11:14:49;;;;;;;0.10;0.10;;;;;;;;;;5001827;28;20133;-86
2023/10/25 11:17:17;;;;;;;0.10;0.10;;;;;;;;;;5003053;28;20471;-86
2023/10/25 11:19:46;;;;;;;0.55;0.55;;;;;;;;;;5005201;28;20042;-85
2023/10/25 11:22:14;;;;;;;0.25;0.25;;;;;;;;;;4997013;28;20046;-84
2023/10/25 11:24:41;;;;;;;0.05;0.05;;;;;;;;;;5005317;28;20050;-84
2023/10/25 11:27:09;;;;;;;0.00;0.00;;;;;;;;;;5002679;28;20038;-84
2023/10/25 11:29:37;;;;;;;0.65;0.65;;;;;;;;;;5005722;28;20052;-85
2023/10/25 11:32:06;;;;;;;0.05;0.05;;;;;;;;;;5005640;28;20068;-85
2023/10/25 11:34:34;;;;;;;0.10;0.10;;;;;;;;;;5006404;28;20649;-85
2023/10/25 11:37:01;;;;;;;0.60;0.60;;;;;;;;;;5007021;28;20053;-85
2023/10/25 11:39:34;;;;;;;0.10;0.10;;;;;;;;;;5003891;28;20065;-85
2023/10/25 11:42:02;;;;;;;0.15;0.15;;;;;;;;;;5003136;28;20046;-84
2023/10/25 11:44:30;;;;;;;0.20;0.13;;;;;;;;;;5005930;28;20053;-84
2023/10/25 11:47:01;;;;;;;0.10;0.10;;;;;;;;;;5003970;28;20181;-84
2023/10/25 11:49:29;;;;;;;0.00;0.00;;;;;;;;;;5004152;28;20046;-85
2023/10/25 11:51:56;;;;;;;0.10;0.10;;;;;;;;;;5005694;28;20050;-86
2023/10/25 11:54:24;;;;;;;0.30;0.30;;;;;;;;;;5008006;28;20042;-85
2023/10/25 11:56:51;;;;;;;0.45;0.45;;;;;;;;;;5006008;28;20108;-85
2023/10/25 11:59:19;;;;;;;0.20;0.20;;;;;;;;;;5007254;28;20142;-85
2023/10/25 12:01:46;;;;;;;0.05;0.05;;;;;;;;;;5011614;28;20073;-85
2023/10/25 12:04:14;;;;;;;0.10;0.10;;;;;;;;;;5009319;28;20495;-85
2023/10/25 12:06:41;;;;;;;0.10;0.10;;;;;;;;;;5004400;28;20493;-86
2023/10/25 12:09:08;;;;;;;0.08;0.08;;;;;;;;;;5008583;28;20053;-85
2023/10/25 12:11:36;;;;;;;0.10;0.10;;;;;;;;;;5008593;28;20127;-85
2023/10/25 12:14:06;;;;;;;0.30;0.28;;;;;;;;;;5007456;28;20073;-85
2023/10/25 12:16:40;;;;;;;0.13;0.13;;;;;;;;;;5010352;28;20396;-85
2023/10/25 12:19:10;;;;;;;0.10;0.10;;;;;;;;;;5015162;28;20041;-85
2023/10/25 12:21:38;;;;;;;0.00;0.00;;;;;;;;;;5011351;28;20651;-84
2023/10/25 12:24:06;;;;;;;0.00;0.00;;;;;;;;;;5010543;28;20042;-84
2023/10/25 12:26:33;;;;;;;0.00;0.00;;;;;;;;;;5011768;28;20421;-85
2023/10/25 12:29:01;;;;;;;0.00;0.00;;;;;;;;;;5010158;28;20073;-85
2023/10/25 12:31:28;;;;;;;0.05;0.05;;;;;;;;;;5002256;28;20046;-85
2023/10/25 12:33:55;;;;;;;0.10;0.10;;;;;;;;;;5010444;28;20057;-84
2023/10/25 12:36:23;;;;;;;0.30;0.30;;;;;;;;;;5006434;28;20078;-85
2023/10/25 12:38:50;;;;;;;0.30;0.30;;;;;;;;;;5005938;28;20077;-85
2023/10/25 12:41:20;;;;;;;0.10;0.10;;;;;;;;;;5007258;28;20070;-85
2023/10/25 12:43:48;;;;;;;0.22;0.22;;;;;;;;;;4996536;28;20042;-82
2023/10/25 12:46:15;;;;;;;0.50;0.50;;;;;;;;;;5025570;28;20064;-82
2023/10/25 12:48:43;;;;;;;0.10;0.10;;;;;;;;;;5006947;28;20054;-83
2023/10/25 12:51:10;;;;;;;0.10;0.10;;;;;;;;;;5004594;28;20053;-82
2023/10/25 12:53:38;;;;;;;0.00;0.00;;;;;;;;;;5010715;28;20542;-83
2023/10/25 12:56:05;;;;;;;0.00;0.00;;;;;;;;;;5010391;28;20129;-82
2023/10/25 12:58:33;;;;;;;0.10;0.10;;;;;;;;;;5009018;28;20046;-83
2023/10/25 13:01:00;;;;;;;0.00;0.00;;;;;;;;;;5011224;28;20046;-83
2023/10/25 13:03:28;;;;;;;0.10;0.10;;;;;;;;;;5009568;28;20056;-84
2023/10/25 13:05:55;;;;;;;0.10;0.10;;;;;;;;;;5006468;28;20058;-85
2023/10/25 13:08:25;;;;;;;0.00;0.00;;;;;;;;;;5004356;28;20061;-84
2023/10/25 13:10:52;;;;;;;0.00;0.00;;;;;;;;;;5009279;28;20057;-83
2023/10/25 13:13:20;;;;;;;0.03;0.03;;;;;;;;;;5008719;28;20064;-84
2023/10/25 13:15:48;;;;;;;0.00;0.00;;;;;;;;;;5009475;28;20125;-82
2023/10/25 13:18:16;;;;;;;0.00;0.00;;;;;;;;;;4999300;28;20104;-84
2023/10/25 13:20:43;;;;;;;0.28;0.28;;;;;;;;;;5010607;28;20120;-84
2023/10/25 13:23:11;;;;;;;0.50;0.50;;;;;;;;;;5012243;28;20126;-85
2023/10/25 13:25:39;;;;;;;0.05;0.05;;;;;;;;;;5004093;28;20050;-83
2023/10/25 13:28:07;;;;;;;0.00;0.00;;;;;;;;;;5003885;28;20054;-83
2023/10/25 13:30:34;;;;;;;0.00;0.00;;;;;;;;;;5008031;28;20379;-83
2023/10/25 13:33:02;;;;;;;0.10;0.10;;;;;;;;;;5010110;28;20049;-83
2023/10/25 13:35:29;;;;;;;0.10;0.10;;;;;;;;;;5008770;28;20104;-83
2023/10/25 13:37:57;;;;;;;0.10;0.10;;;;;;;;;;5005084;28;20054;-83
2023/10/25 13:40:26;;;;;;;0.47;0.30;;;;;;;;;;5002194;28;20044;-83
2023/10/25 13:42:53;;;;;;;0.17;0.17;;;;;;;;;;5008644;28;20050;-84
2023/10/25 13:45:21;;;;;;;0.40;0.40;;;;;;;;;;5003507;28;20496;-85
2023/10/25 13:47:48;;;;;;;0.10;0.10;;;;;;;;;;5009969;28;20042;-85
2023/10/25 13:50:18;;;;;;;0.00;0.00;;;;;;;;;;5007434;28;20053;-84
2023/10/25 13:52:46;;;;;;;0.20;0.20;;;;;;;;;;5006944;28;20052;-84
2023/10/25 13:55:14;;;;;;;0.20;0.20;;;;;;;;;;5015300;28;20046;-84
2023/10/25 13:57:42;;;;;;;0.08;0.08;;;;;;;;;;5002934;28;20349;-84
2023/10/25 14:00:10;;;;;;;0.60;0.60;;;;;;;;;;5002034;28;20042;-84
2023/10/25 14:02:41;;;;;;;0.10;0.10;;;;;;;;;;5004365;28;20042;-85
2023/10/25 14:05:10;;;;;;;0.10;0.10;;;;;;;;;;4996282;28;20558;-84
2023/10/25 14:07:38;;;;;;;0.13;0.13;;;;;;;;;;5000050;28;20065;-84
2023/10/25 14:10:10;;;;;;;0.10;0.10;;;;;;;;;;4985470;28;20056;-85
2023/10/25 14:12:37;;;;;;;0.82;0.82;;;;;;;;;;5004386;28;20124;-84
2023/10/25 14:15:05;;;;;;;0.40;0.40;;;;;;;;;;5000551;28;20369;-84
2023/10/25 14:17:32;;;;;;;0.63;0.63;;;;;;;;;;5004147;28;20122;-85
2023/10/25 14:20:00;;;;;;;0.00;0.00;;;;;;;;;;5002782;28;20065;-84
2023/10/25 14:22:27;;;;;;;0.35;0.20;;;;;;;;;;5000288;28;20456;-84
2023/10/25 14:24:55;;;;;;;0.38;0.30;;;;;;;;;;5003028;28;20077;-85
2023/10/25 14:27:23;;;;;;;0.20;0.20;;;;;;;;;;4998316;28;20255;-85
2023/10/25 14:29:51;;;;;;;4.15;0.98;;;;;;;;;;4996371;28;20065;-85
2023/10/25 14:32:19;;;;;;;0.10;0.10;;;;;;;;;;4998994;28;20375;-85
2023/10/25 14:34:46;;;;;;;0.00;0.00;;;;;;;;;;5007801;28;20046;-84
2023/10/25 14:37:14;;;;;;;1.15;1.05;;;;;;;;;;5003611;28;20280;-85
2023/10/25 14:39:41;;;;;;;0.20;0.10;;;;;;;;;;4999840;28;20084;-85
2023/10/25 14:42:11;;;;;;;0.10;0.10;;;;;;;;;;5007031;28;20038;-84
2023/10/25 14:44:38;;;;;;;0.25;0.25;;;;;;;;;;5008444;28;20050;-84
2023/10/25 14:47:07;;;;;;;0.00;0.00;;;;;;;;;;5006984;28;20057;-84
2023/10/25 14:49:35;;;;;;;0.10;0.10;;;;;;;;;;4996679;28;20132;-84
2023/10/25 14:52:04;;;;;;;0.00;0.00;;;;;;;;;;5002993;28;20057;-84